createdAt,value
2022-12-26T00:00:38.381Z,6.30
2022-12-26T00:03:05.716Z,6.40
2022-12-26T00:05:37.259Z,6.40
2022-12-26T00:08:04.804Z,6.40
2022-12-26T00:10:32.029Z,6.40
2022-12-26T00:13:37.140Z,6.40
2022-12-26T00:15:47.709Z,6.40
2022-12-26T00:18:15.244Z,6.40
2022-12-26T00:20:42.453Z,6.40
2022-12-26T00:23:09.698Z,6.40
2022-12-26T00:25:37.191Z,6.40
2022-12-26T00:28:04.602Z,6.40
2022-12-26T00:30:31.806Z,6.40
2022-12-26T00:32:59.065Z,6.40
2022-12-26T00:35:26.218Z,6.40
2022-12-26T00:37:54.608Z,6.40
2022-12-26T00:40:21.798Z,6.50
2022-12-26T00:42:49.003Z,6.50
2022-12-26T00:45:16.241Z,6.50
2022-12-26T00:47:43.432Z,6.60
2022-12-26T00:50:12.539Z,6.70
2022-12-26T00:52:41.689Z,6.70
2022-12-26T00:55:09.290Z,6.80
2022-12-26T00:57:37.171Z,6.80
2022-12-26T01:00:05.737Z,6.80
2022-12-26T01:02:39.208Z,6.80
2022-12-26T01:05:11.389Z,6.80
2022-12-26T01:08:22.369Z,6.80
2022-12-26T01:10:29.737Z,6.80
2022-12-26T01:12:57.084Z,6.80
2022-12-26T01:15:24.242Z,6.80
2022-12-26T01:17:51.385Z,6.90
2022-12-26T01:20:19.395Z,6.90
2022-12-26T01:22:46.610Z,6.90
2022-12-26T01:25:14.140Z,6.90
2022-12-26T01:27:41.325Z,6.90
2022-12-26T01:30:09.461Z,6.90
2022-12-26T01:32:36.608Z,6.90
2022-12-26T01:35:03.995Z,7.00
2022-12-26T01:37:31.217Z,6.90
2022-12-26T01:39:58.390Z,6.90
2022-12-26T01:42:26.559Z,7.00
2022-12-26T01:45:11.809Z,7.00
2022-12-26T01:48:04.046Z,7.00
2022-12-26T01:50:41.538Z,7.00
2022-12-26T01:53:14.252Z,7.00
2022-12-26T01:55:43.208Z,7.00
2022-12-26T01:58:19.539Z,7.00
2022-12-26T02:00:47.056Z,7.00
2022-12-26T02:03:33.742Z,7.00
2022-12-26T02:06:01.881Z,7.00
2022-12-26T02:08:33.350Z,7.10
2022-12-26T02:11:22.939Z,7.10
2022-12-26T02:13:50.288Z,7.10
2022-12-26T02:16:20.217Z,7.10
2022-12-26T02:18:47.452Z,7.10
2022-12-26T02:21:26.003Z,7.10
2022-12-26T02:24:23.616Z,7.10
2022-12-26T02:26:59.674Z,7.10
2022-12-26T02:29:50.086Z,7.10
2022-12-26T02:32:36.711Z,7.10
2022-12-26T02:35:33.004Z,7.10
2022-12-26T02:38:26.752Z,7.10
2022-12-26T02:41:16.290Z,7.10
2022-12-26T02:43:59.633Z,7.10
2022-12-26T02:47:03.005Z,7.10
2022-12-26T02:50:12.892Z,7.10
2022-12-26T02:53:23.404Z,7.10
2022-12-26T02:56:14.910Z,7.10
2022-12-26T02:59:10.133Z,7.10
2022-12-26T03:02:01.734Z,7.10
2022-12-26T03:04:51.749Z,7.10
2022-12-26T03:07:43.211Z,7.10
2022-12-26T03:10:40.958Z,7.10
2022-12-26T03:13:26.577Z,7.10
2022-12-26T03:16:23.592Z,7.10
2022-12-26T03:18:57.730Z,7.10
2022-12-26T03:21:32.052Z,7.10
2022-12-26T03:23:59.639Z,7.10
2022-12-26T03:26:47.467Z,7.10
2022-12-26T03:29:38.858Z,7.10
2022-12-26T03:32:09.835Z,7.20
2022-12-26T03:34:42.599Z,7.10
2022-12-26T03:37:49.261Z,7.10
2022-12-26T03:40:59.215Z,7.10
2022-12-26T03:44:19.064Z,7.20
2022-12-26T03:47:21.616Z,7.10
2022-12-26T03:50:15.626Z,7.10
2022-12-26T03:53:14.437Z,7.10
2022-12-26T03:56:13.749Z,7.20
2022-12-26T03:59:08.985Z,7.20
2022-12-26T04:01:56.855Z,7.20
2022-12-26T04:04:46.373Z,7.20
2022-12-26T04:07:56.581Z,7.20
2022-12-26T04:10:53.372Z,7.20
2022-12-26T04:13:42.791Z,7.20
2022-12-26T04:16:43.655Z,7.20
2022-12-26T04:19:48.621Z,7.20
2022-12-26T04:22:45.564Z,7.20
2022-12-26T04:25:48.995Z,7.20
2022-12-26T04:28:39.706Z,7.10
2022-12-26T04:31:46.986Z,7.20
2022-12-26T04:34:45.293Z,7.20
2022-12-26T04:37:41.827Z,7.20
2022-12-26T04:40:37.828Z,7.20
2022-12-26T04:43:49.614Z,7.20
2022-12-26T04:46:15.990Z,7.20
2022-12-26T04:49:04.321Z,7.30
2022-12-26T04:51:31.477Z,7.30
2022-12-26T04:53:58.882Z,7.30
2022-12-26T04:56:26.288Z,7.30
2022-12-26T04:58:53.506Z,7.30
2022-12-26T05:01:40.469Z,7.30
2022-12-26T05:04:38.094Z,7.30
2022-12-26T05:07:29.909Z,7.30
2022-12-26T05:09:57.112Z,7.40
2022-12-26T05:12:28.597Z,7.40
2022-12-26T05:14:55.839Z,7.40
2022-12-26T05:17:41.619Z,7.40
2022-12-26T05:20:31.272Z,7.40
2022-12-26T05:23:19.872Z,7.40
2022-12-26T05:26:07.212Z,7.40
2022-12-26T05:28:43.473Z,7.50
2022-12-26T05:31:16.496Z,7.50
2022-12-26T05:34:02.809Z,7.50
2022-12-26T05:36:41.871Z,7.50
2022-12-26T05:39:09.525Z,7.50
2022-12-26T05:41:37.740Z,7.50
2022-12-26T05:44:05.873Z,7.50
2022-12-26T05:46:34.314Z,7.50
2022-12-26T05:49:01.661Z,7.50
2022-12-26T05:51:28.842Z,7.50
2022-12-26T05:53:56.070Z,7.50
2022-12-26T05:56:23.616Z,7.50
2022-12-26T05:58:59.521Z,7.50
2022-12-26T06:01:28.677Z,7.40
2022-12-26T06:03:58.386Z,7.40
2022-12-26T06:06:26.703Z,7.50
2022-12-26T06:08:55.934Z,7.50
2022-12-26T06:11:25.701Z,7.60
2022-12-26T06:13:53.271Z,7.60
2022-12-26T06:16:20.681Z,7.60
2022-12-26T06:18:48.667Z,7.60
2022-12-26T06:21:18.757Z,7.60
2022-12-26T06:23:46.500Z,7.60
2022-12-26T06:26:13.976Z,7.60
2022-12-26T06:28:42.934Z,7.60
2022-12-26T06:31:14.461Z,7.60
2022-12-26T06:33:42.119Z,7.60
2022-12-26T06:36:12.917Z,7.70
2022-12-26T06:38:40.169Z,7.70
2022-12-26T06:41:09.771Z,7.70
2022-12-26T06:43:38.177Z,7.70
2022-12-26T06:46:07.915Z,7.70
2022-12-26T06:48:39.732Z,7.70
2022-12-26T06:51:12.308Z,7.70
2022-12-26T06:53:39.719Z,7.70
2022-12-26T06:56:10.771Z,7.80
2022-12-26T06:58:39.093Z,7.80
2022-12-26T07:01:12.297Z,7.80
2022-12-26T07:03:46.592Z,7.80
2022-12-26T07:06:23.667Z,7.80
2022-12-26T07:08:57.382Z,7.80
2022-12-26T07:11:26.890Z,7.80
2022-12-26T07:13:54.891Z,7.80
2022-12-26T07:16:22.799Z,7.90
2022-12-26T07:18:54.003Z,7.90
2022-12-26T07:21:21.792Z,7.90
2022-12-26T07:23:49.408Z,7.90
2022-12-26T07:26:16.998Z,7.90
2022-12-26T07:28:44.502Z,7.90
2022-12-26T07:31:19.861Z,7.90
2022-12-26T07:33:55.074Z,7.90
2022-12-26T07:36:22.610Z,7.90
2022-12-26T07:38:49.811Z,7.90
2022-12-26T07:41:35.884Z,7.90
2022-12-26T07:44:03.460Z,7.90
2022-12-26T07:46:30.689Z,7.90
2022-12-26T07:48:58.036Z,7.80
2022-12-26T07:51:26.423Z,7.80
2022-12-26T07:53:53.593Z,7.70
2022-12-26T07:56:20.921Z,7.70
2022-12-26T07:58:49.477Z,7.80
2022-12-26T08:01:16.944Z,7.90
2022-12-26T08:03:44.785Z,7.90
2022-12-26T08:06:12.339Z,7.90
2022-12-26T08:08:44.044Z,7.90
2022-12-26T08:11:16.916Z,7.90
2022-12-26T08:13:46.969Z,7.90
2022-12-26T08:16:15.062Z,7.80
2022-12-26T08:18:42.901Z,7.90
2022-12-26T08:21:11.280Z,7.90
2022-12-26T08:23:39.048Z,8.00
2022-12-26T08:26:08.386Z,8.10
2022-12-26T08:28:36.263Z,8.10
2022-12-26T08:31:08.285Z,8.10
2022-12-26T08:33:36.168Z,8.10
2022-12-26T08:36:05.595Z,8.10
2022-12-26T08:38:34.018Z,8.10
2022-12-26T08:41:02.252Z,8.10
2022-12-26T08:46:18.846Z,8.10
2022-12-26T08:48:46.864Z,8.20
2022-12-26T08:51:22.669Z,8.20
2022-12-26T08:53:51.235Z,8.30
2022-12-26T08:56:24.984Z,8.30
2022-12-26T08:58:53.530Z,8.30
2022-12-26T09:01:27.759Z,8.30
2022-12-26T09:03:56.945Z,8.30
2022-12-26T09:06:25.421Z,8.30
2022-12-26T09:08:53.571Z,8.40
2022-12-26T09:11:23.451Z,8.40
2022-12-26T09:13:50.857Z,8.30
2022-12-26T09:16:21.766Z,8.30
2022-12-26T09:18:54.418Z,8.30
2022-12-26T09:21:22.604Z,8.30
2022-12-26T09:23:50.430Z,8.30
2022-12-26T09:26:19.964Z,8.30
2022-12-26T09:28:48.083Z,8.30
2022-12-26T09:31:18.295Z,8.30
2022-12-26T09:33:47.237Z,8.30
2022-12-26T09:36:20.279Z,8.30
2022-12-26T09:38:49.330Z,8.40
2022-12-26T09:41:42.050Z,8.40
2022-12-26T09:44:20.911Z,8.40
2022-12-26T09:47:26.026Z,8.40
2022-12-26T09:50:04.491Z,8.40
2022-12-26T09:52:47.486Z,8.40
2022-12-26T09:55:50.181Z,8.40
2022-12-26T09:58:43.787Z,8.40
2022-12-26T10:01:17.218Z,8.40
2022-12-26T10:03:52.387Z,8.50
2022-12-26T10:06:43.022Z,8.50
2022-12-26T10:09:35.269Z,8.50
2022-12-26T10:12:13.415Z,8.50
2022-12-26T10:14:43.632Z,8.50
2022-12-26T10:17:46.784Z,8.50
2022-12-26T10:20:23.968Z,8.50
2022-12-26T10:23:32.196Z,8.50
2022-12-26T10:26:08.903Z,8.50
2022-12-26T10:28:59.461Z,8.50
2022-12-26T10:31:45.000Z,8.60
2022-12-26T10:34:41.687Z,8.60
2022-12-26T10:37:15.610Z,8.70
2022-12-26T10:40:14.805Z,8.70
2022-12-26T10:42:45.175Z,8.80
2022-12-26T10:45:18.506Z,8.80
2022-12-26T10:47:47.995Z,8.80
2022-12-26T10:50:23.827Z,8.80
2022-12-26T10:52:54.971Z,8.80
2022-12-26T10:55:31.783Z,8.90
2022-12-26T10:58:15.165Z,8.90
2022-12-26T11:00:42.526Z,8.90
2022-12-26T11:03:12.800Z,8.80
2022-12-26T11:08:49.493Z,8.80
2022-12-26T11:11:24.059Z,8.70
2022-12-26T11:14:02.751Z,8.70
2022-12-26T11:16:34.510Z,8.70
2022-12-26T11:19:02.581Z,8.70
2022-12-26T11:21:32.388Z,8.80
2022-12-26T11:24:08.642Z,8.80
2022-12-26T11:26:41.055Z,8.80
2022-12-26T11:29:21.860Z,8.80
2022-12-26T11:32:02.655Z,8.80
2022-12-26T11:34:36.325Z,8.90
2022-12-26T11:37:06.321Z,9.20
2022-12-26T11:39:36.984Z,9.40
2022-12-26T11:42:12.685Z,9.40
2022-12-26T11:44:45.490Z,9.50
2022-12-26T11:47:15.574Z,9.50
2022-12-26T11:50:05.478Z,9.60
2022-12-26T11:52:39.132Z,9.50
2022-12-26T11:55:22.320Z,9.60
2022-12-26T11:58:17.763Z,9.50
2022-12-26T12:00:51.688Z,9.30
2022-12-26T12:03:21.688Z,9.10
2022-12-26T12:06:36.704Z,9.00
2022-12-26T12:09:08.264Z,9.00
2022-12-26T12:12:10.845Z,9.00
2022-12-26T12:15:15.730Z,8.90
2022-12-26T12:18:03.471Z,9.00
2022-12-26T12:21:04.852Z,8.90
2022-12-26T12:23:47.022Z,8.90
2022-12-26T12:26:31.483Z,9.00
2022-12-26T12:29:27.765Z,9.10
2022-12-26T12:32:17.364Z,9.10
2022-12-26T12:35:22.909Z,9.10
2022-12-26T12:38:09.518Z,9.00
2022-12-26T12:40:48.840Z,9.00
2022-12-26T12:43:42.955Z,9.00
2022-12-26T12:46:38.951Z,9.00
2022-12-26T12:49:35.594Z,9.20
2022-12-26T12:52:02.778Z,9.40
2022-12-26T12:55:05.531Z,9.70
2022-12-26T12:57:48.216Z,9.90
2022-12-26T13:00:21.659Z,10.30
2022-12-26T13:02:59.796Z,11.10
2022-12-26T13:05:39.079Z,11.50
2022-12-26T13:08:15.432Z,11.60
2022-12-26T13:10:50.949Z,12.60
2022-12-26T13:13:53.728Z,12.90
2022-12-26T13:16:25.651Z,11.50
2022-12-26T13:19:01.773Z,10.80
2022-12-26T13:21:34.634Z,10.30
2022-12-26T13:24:25.066Z,9.80
2022-12-26T13:27:10.040Z,9.40
2022-12-26T13:29:43.325Z,9.20
2022-12-26T13:32:21.539Z,9.10
2022-12-26T13:34:53.323Z,9.00
2022-12-26T13:37:38.895Z,8.90
2022-12-26T13:40:12.177Z,8.70
2022-12-26T13:43:24.756Z,8.50
2022-12-26T13:45:56.350Z,8.40
2022-12-26T13:48:27.119Z,8.20
2022-12-26T13:51:00.891Z,8.10
2022-12-26T13:53:37.138Z,8.00
2022-12-26T13:56:30.785Z,8.00
2022-12-26T13:59:07.064Z,7.90
2022-12-26T14:01:43.514Z,7.70
2022-12-26T14:04:58.131Z,7.60
2022-12-26T14:07:48.533Z,7.50
2022-12-26T14:10:52.738Z,7.40
2022-12-26T14:13:41.794Z,7.30
2022-12-26T14:16:20.783Z,7.10
2022-12-26T14:19:16.773Z,7.00
2022-12-26T14:22:03.496Z,6.80
2022-12-26T14:24:36.416Z,6.70
2022-12-26T14:27:22.109Z,6.70
2022-12-26T14:30:11.045Z,6.70
2022-12-26T14:32:58.247Z,6.60
2022-12-26T14:35:46.550Z,6.60
2022-12-26T14:38:23.071Z,6.50
2022-12-26T14:41:05.739Z,6.50
2022-12-26T14:43:40.873Z,6.40
2022-12-26T14:46:30.111Z,6.40
2022-12-26T14:48:59.939Z,6.30
2022-12-26T14:51:31.590Z,6.30
2022-12-26T14:54:34.454Z,6.30
2022-12-26T14:57:40.688Z,6.20
2022-12-26T15:00:35.112Z,6.20
2022-12-26T15:03:02.341Z,6.20
2022-12-26T15:05:37.414Z,6.10
2022-12-26T15:08:51.799Z,6.10
2022-12-26T15:11:43.945Z,6.00
2022-12-26T15:14:44.163Z,5.90
2022-12-26T15:17:29.639Z,5.90
2022-12-26T15:20:17.893Z,5.90
2022-12-26T15:22:57.769Z,5.80
2022-12-26T15:25:33.262Z,5.80
2022-12-26T15:28:23.301Z,5.70
2022-12-26T15:31:25.496Z,5.50
2022-12-26T15:34:20.319Z,5.40
2022-12-26T15:37:02.400Z,5.30
2022-12-26T15:39:57.530Z,5.10
2022-12-26T15:42:52.337Z,4.90
2022-12-26T15:45:54.470Z,4.70
2022-12-26T15:48:45.436Z,4.60
2022-12-26T15:51:17.084Z,4.40
2022-12-26T15:54:11.216Z,4.40
2022-12-26T15:57:08.892Z,4.70
2022-12-26T15:59:52.317Z,4.70
2022-12-26T16:02:25.981Z,4.60
2022-12-26T16:05:26.764Z,4.40
2022-12-26T16:08:16.067Z,4.30
2022-12-26T16:10:43.672Z,4.20
2022-12-26T16:13:22.752Z,4.00
2022-12-26T16:15:55.661Z,4.10
2022-12-26T16:18:30.835Z,4.10
2022-12-26T16:21:19.675Z,4.00
2022-12-26T16:23:49.891Z,4.00
2022-12-26T16:26:30.223Z,3.90
2022-12-26T16:29:00.873Z,4.00
2022-12-26T16:31:31.016Z,4.10
2022-12-26T16:34:00.169Z,4.40
2022-12-26T16:36:29.936Z,4.60
2022-12-26T16:38:57.870Z,4.60
2022-12-26T16:41:28.172Z,4.70
2022-12-26T16:43:58.222Z,4.80
2022-12-26T16:46:29.889Z,4.90
2022-12-26T16:48:59.605Z,4.90
2022-12-26T16:51:45.945Z,4.90
2022-12-26T16:54:17.646Z,4.90
2022-12-26T16:56:52.674Z,4.80
2022-12-26T16:59:24.237Z,4.70
2022-12-26T17:01:57.817Z,4.60
2022-12-26T17:04:27.310Z,4.50
2022-12-26T17:07:02.333Z,4.50
2022-12-26T17:09:39.478Z,4.40
2022-12-26T17:12:15.072Z,4.50
2022-12-26T17:14:47.194Z,4.60
2022-12-26T17:17:23.407Z,4.70
2022-12-26T17:19:54.488Z,4.60
2022-12-26T17:22:33.477Z,4.60
2022-12-26T17:25:26.817Z,4.50
2022-12-26T17:28:12.338Z,4.30
2022-12-26T17:30:42.837Z,4.20
2022-12-26T17:33:14.555Z,4.10
2022-12-26T17:36:33.284Z,4.20
2022-12-26T17:38:32.847Z,4.10
2022-12-26T17:41:03.988Z,3.90
2022-12-26T17:43:37.124Z,3.90
2022-12-26T17:46:06.848Z,3.90
2022-12-26T17:48:34.797Z,3.70
2022-12-26T17:51:04.854Z,3.80
2022-12-26T17:53:34.963Z,3.60
2022-12-26T17:56:06.057Z,3.60
2022-12-26T17:58:34.893Z,3.70
2022-12-26T18:01:02.792Z,3.80
2022-12-26T18:03:30.122Z,3.70
2022-12-26T18:05:57.809Z,3.60
2022-12-26T18:08:29.886Z,3.40
2022-12-26T18:10:58.259Z,3.50
2022-12-26T18:13:25.564Z,3.40
2022-12-26T18:15:54.362Z,3.40
2022-12-26T18:18:27.047Z,3.40
2022-12-26T18:20:54.517Z,3.40
2022-12-26T18:23:22.929Z,3.30
2022-12-26T18:25:54.511Z,3.20
2022-12-26T18:28:22.702Z,3.10
2022-12-26T18:30:49.968Z,3.20
2022-12-26T18:33:17.102Z,3.20
2022-12-26T18:35:45.020Z,3.10
2022-12-26T18:38:16.635Z,3.10
2022-12-26T18:40:49.356Z,3.20
2022-12-26T18:43:16.749Z,3.10
2022-12-26T18:45:43.991Z,3.10
2022-12-26T18:48:14.500Z,3.10
2022-12-26T18:50:43.124Z,3.20
2022-12-26T18:53:11.429Z,3.10
2022-12-26T18:55:39.940Z,3.10
2022-12-26T18:58:07.501Z,3.10
2022-12-26T19:00:35.965Z,3.10
2022-12-26T19:03:03.572Z,3.10
2022-12-26T19:05:34.143Z,3.20
2022-12-26T19:08:03.494Z,3.20
2022-12-26T19:10:33.487Z,3.20
2022-12-26T19:13:05.870Z,3.20
2022-12-26T19:15:35.349Z,3.20
2022-12-26T19:18:04.530Z,3.20
2022-12-26T19:20:32.189Z,3.10
2022-12-26T19:22:59.514Z,3.20
2022-12-26T19:25:26.990Z,3.20
2022-12-26T19:27:54.360Z,3.20
2022-12-26T19:30:22.671Z,3.20
2022-12-26T19:32:50.551Z,3.20
2022-12-26T19:35:18.573Z,3.10
2022-12-26T19:37:45.987Z,3.10
2022-12-26T19:40:24.520Z,3.10
2022-12-26T19:42:52.424Z,3.10
2022-12-26T19:45:19.813Z,3.10
2022-12-26T19:47:47.049Z,3.10
2022-12-26T19:50:14.249Z,3.00
2022-12-26T19:52:41.535Z,3.10
2022-12-26T19:55:11.409Z,2.90
2022-12-26T19:57:38.879Z,3.00
2022-12-26T20:00:06.952Z,3.10
2022-12-26T20:02:41.312Z,3.00
2022-12-26T20:05:09.442Z,2.90
2022-12-26T20:07:36.760Z,2.90
2022-12-26T20:10:05.349Z,2.90
2022-12-26T20:12:32.652Z,2.90
2022-12-26T20:14:59.846Z,2.90
2022-12-26T20:17:27.217Z,2.90
2022-12-26T20:19:54.580Z,3.00
2022-12-26T20:22:21.843Z,3.00
2022-12-26T20:24:49.133Z,2.90
2022-12-26T20:27:17.663Z,2.80
2022-12-26T20:29:45.029Z,2.80
2022-12-26T20:32:12.846Z,2.80
2022-12-26T20:34:40.087Z,2.80
2022-12-26T20:37:07.821Z,2.70
2022-12-26T20:39:35.173Z,2.70
2022-12-26T20:42:02.481Z,2.60
2022-12-26T20:44:29.761Z,2.70
2022-12-26T20:46:57.154Z,2.70
2022-12-26T20:49:24.395Z,2.80
2022-12-26T20:51:51.734Z,2.70
2022-12-26T20:54:19.134Z,2.70
2022-12-26T20:56:46.374Z,2.70
2022-12-26T20:59:17.649Z,2.60
2022-12-26T21:01:45.257Z,2.50
2022-12-26T21:04:20.968Z,2.60
2022-12-26T21:06:50.391Z,2.60
2022-12-26T21:09:17.681Z,2.90
2022-12-26T21:11:45.543Z,3.10
2022-12-26T21:14:16.564Z,3.20
2022-12-26T21:16:50.202Z,3.30
2022-12-26T21:19:18.526Z,3.40
2022-12-26T21:21:48.248Z,3.50
2022-12-26T21:24:22.245Z,3.50
2022-12-26T21:26:49.677Z,3.50
2022-12-26T21:29:19.822Z,3.50
2022-12-26T21:31:47.908Z,3.50
2022-12-26T21:34:17.452Z,3.50
2022-12-26T21:37:04.140Z,3.50
2022-12-26T21:39:32.832Z,3.40
2022-12-26T21:42:01.035Z,3.40
2022-12-26T21:44:28.311Z,3.40
2022-12-26T21:46:55.575Z,3.30
2022-12-26T21:49:23.084Z,3.30
2022-12-26T21:51:50.241Z,3.20
2022-12-26T21:54:36.121Z,3.20
2022-12-26T21:57:03.790Z,3.10
2022-12-26T21:59:50.939Z,2.90
2022-12-26T22:02:37.163Z,2.90
2022-12-26T22:05:04.967Z,2.90
2022-12-26T22:07:32.220Z,2.90
2022-12-26T22:09:59.407Z,2.90
2022-12-26T22:12:45.296Z,2.90
2022-12-26T22:15:31.231Z,2.80
2022-12-26T22:17:59.116Z,2.70
2022-12-26T22:20:26.376Z,2.70
2022-12-26T22:22:55.417Z,2.70
2022-12-26T22:25:22.688Z,2.70
2022-12-26T22:27:49.958Z,2.80
2022-12-26T22:30:17.288Z,2.80
2022-12-26T22:32:44.501Z,2.80
2022-12-26T22:35:18.250Z,2.80
2022-12-26T22:37:46.282Z,2.80
2022-12-26T22:40:13.587Z,2.80
2022-12-26T22:42:40.763Z,2.80
2022-12-26T22:45:08.625Z,2.70
2022-12-26T22:47:35.838Z,2.70
2022-12-26T22:50:04.130Z,2.70
2022-12-26T22:52:31.868Z,2.80
2022-12-26T22:54:59.195Z,2.80
2022-12-26T22:57:26.400Z,2.80
2022-12-26T23:00:10.855Z,2.80
2022-12-26T23:02:38.491Z,2.80
2022-12-26T23:05:06.424Z,2.80
2022-12-26T23:07:33.961Z,2.80
2022-12-26T23:10:01.432Z,3.10
2022-12-26T23:12:44.066Z,3.20
2022-12-26T23:15:13.066Z,3.30
2022-12-26T23:18:03.543Z,3.30
2022-12-26T23:20:54.893Z,3.10
2022-12-26T23:23:23.380Z,3.00
2022-12-26T23:25:51.140Z,3.00
2022-12-26T23:28:38.164Z,3.00
2022-12-26T23:31:05.678Z,2.90
2022-12-26T23:33:33.589Z,2.90
2022-12-26T23:36:01.260Z,2.80
2022-12-26T23:38:28.647Z,2.80
2022-12-26T23:40:55.914Z,2.70
2022-12-26T23:43:23.111Z,2.70
2022-12-26T23:45:50.460Z,2.80
2022-12-26T23:48:17.671Z,2.70
2022-12-26T23:50:44.933Z,2.70
2022-12-26T23:53:12.706Z,2.60
2022-12-26T23:55:42.065Z,2.60
2022-12-26T23:58:09.902Z,2.60
